sensor_id;sensor_type;location;lat;lon;timestamp;P1;durP1;ratioP1;P2;durP2;ratioP2
60993;SDS011;47611;54.932;73.338;2022-08-19T00:01:50;7.72;;;3.47;;
60993;SDS011;47611;54.932;73.338;2022-08-19T00:04:18;7.15;;;3.10;;
60993;SDS011;47611;54.932;73.338;2022-08-19T00:06:47;11.32;;;3.67;;
60993;SDS011;47611;54.932;73.338;2022-08-19T00:09:32;3.75;;;2.60;;
60993;SDS011;47611;54.932;73.338;2022-08-19T00:11:59;5.75;;;3.40;;
60993;SDS011;47611;54.932;73.338;2022-08-19T00:14:26;5.88;;;3.13;;
60993;SDS011;47611;54.932;73.338;2022-08-19T00:16:53;5.63;;;3.30;;
60993;SDS011;47611;54.932;73.338;2022-08-19T00:19:20;8.23;;;3.60;;
60993;SDS011;47611;54.932;73.338;2022-08-19T00:21:47;8.98;;;3.25;;
60993;SDS011;47611;54.932;73.338;2022-08-19T00:24:14;12.25;;;3.72;;
60993;SDS011;47611;54.932;73.338;2022-08-19T00:26:41;7.95;;;3.30;;
60993;SDS011;47611;54.932;73.338;2022-08-19T00:29:10;7.03;;;3.30;;
60993;SDS011;47611;54.932;73.338;2022-08-19T00:31:39;9.32;;;3.55;;
60993;SDS011;47611;54.932;73.338;2022-08-19T00:34:07;6.97;;;3.10;;
60993;SDS011;47611;54.932;73.338;2022-08-19T00:36:33;8.82;;;3.20;;
60993;SDS011;47611;54.932;73.338;2022-08-19T00:39:00;7.45;;;3.00;;
60993;SDS011;47611;54.932;73.338;2022-08-19T00:41:27;6.90;;;3.30;;
60993;SDS011;47611;54.932;73.338;2022-08-19T00:43:58;5.70;;;2.90;;
60993;SDS011;47611;54.932;73.338;2022-08-19T00:46:55;5.13;;;2.70;;
60993;SDS011;47611;54.932;73.338;2022-08-19T00:52:10;11.25;;;4.07;;
60993;SDS011;47611;54.932;73.338;2022-08-19T00:54:45;7.78;;;3.08;;
60993;SDS011;47611;54.932;73.338;2022-08-19T00:57:15;7.05;;;2.42;;
60993;SDS011;47611;54.932;73.338;2022-08-19T00:59:44;9.10;;;3.75;;
60993;SDS011;47611;54.932;73.338;2022-08-19T01:02:14;10.30;;;3.88;;
60993;SDS011;47611;54.932;73.338;2022-08-19T01:04:41;9.63;;;3.63;;
60993;SDS011;47611;54.932;73.338;2022-08-19T01:07:07;8.98;;;3.83;;
60993;SDS011;47611;54.932;73.338;2022-08-19T01:09:33;9.20;;;3.65;;
60993;SDS011;47611;54.932;73.338;2022-08-19T01:12:00;7.40;;;3.38;;
60993;SDS011;47611;54.932;73.338;2022-08-19T01:14:27;9.45;;;3.60;;
60993;SDS011;47611;54.932;73.338;2022-08-19T01:16:54;7.68;;;3.65;;
60993;SDS011;47611;54.932;73.338;2022-08-19T01:19:29;9.68;;;3.70;;
60993;SDS011;47611;54.932;73.338;2022-08-19T01:22:02;6.00;;;3.17;;
60993;SDS011;47611;54.932;73.338;2022-08-19T01:24:50;9.18;;;3.10;;
60993;SDS011;47611;54.932;73.338;2022-08-19T01:27:17;9.68;;;3.90;;
60993;SDS011;47611;54.932;73.338;2022-08-19T01:29:44;8.32;;;4.20;;
60993;SDS011;47611;54.932;73.338;2022-08-19T01:32:12;9.23;;;3.65;;
60993;SDS011;47611;54.932;73.338;2022-08-19T01:34:41;10.20;;;4.18;;
60993;SDS011;47611;54.932;73.338;2022-08-19T01:37:12;7.53;;;3.47;;
60993;SDS011;47611;54.932;73.338;2022-08-19T01:39:40;10.30;;;3.95;;
60993;SDS011;47611;54.932;73.338;2022-08-19T01:42:08;7.35;;;3.67;;
60993;SDS011;47611;54.932;73.338;2022-08-19T01:44:37;11.40;;;3.67;;
60993;SDS011;47611;54.932;73.338;2022-08-19T01:47:04;14.82;;;4.00;;
60993;SDS011;47611;54.932;73.338;2022-08-19T01:49:36;10.15;;;3.63;;
60993;SDS011;47611;54.932;73.338;2022-08-19T01:52:03;10.85;;;4.18;;
60993;SDS011;47611;54.932;73.338;2022-08-19T01:54:31;9.48;;;3.30;;
60993;SDS011;47611;54.932;73.338;2022-08-19T01:57:00;9.30;;;3.28;;
60993;SDS011;47611;54.932;73.338;2022-08-19T01:59:30;8.35;;;2.97;;
60993;SDS011;47611;54.932;73.338;2022-08-19T02:01:58;9.70;;;2.90;;
60993;SDS011;47611;54.932;73.338;2022-08-19T02:04:24;7.03;;;3.20;;
60993;SDS011;47611;54.932;73.338;2022-08-19T02:06:51;9.23;;;3.22;;
60993;SDS011;47611;54.932;73.338;2022-08-19T02:09:17;12.05;;;2.97;;
60993;SDS011;47611;54.932;73.338;2022-08-19T02:11:44;8.98;;;3.30;;
60993;SDS011;47611;54.932;73.338;2022-08-19T02:14:10;12.38;;;3.38;;
60993;SDS011;47611;54.932;73.338;2022-08-19T02:16:36;11.32;;;4.45;;
60993;SDS011;47611;54.932;73.338;2022-08-19T02:19:03;11.25;;;3.58;;
60993;SDS011;47611;54.932;73.338;2022-08-19T02:21:29;12.85;;;3.72;;
60993;SDS011;47611;54.932;73.338;2022-08-19T02:23:56;15.63;;;3.75;;
60993;SDS011;47611;54.932;73.338;2022-08-19T02:26:23;10.85;;;3.67;;
60993;SDS011;47611;54.932;73.338;2022-08-19T02:28:51;14.15;;;4.45;;
60993;SDS011;47611;54.932;73.338;2022-08-19T02:31:19;18.05;;;4.65;;
60993;SDS011;47611;54.932;73.338;2022-08-19T02:33:47;11.10;;;3.70;;
60993;SDS011;47611;54.932;73.338;2022-08-19T02:36:14;11.60;;;3.50;;
60993;SDS011;47611;54.932;73.338;2022-08-19T02:38:42;17.83;;;5.15;;
60993;SDS011;47611;54.932;73.338;2022-08-19T02:41:16;15.00;;;4.40;;
60993;SDS011;47611;54.932;73.338;2022-08-19T02:43:45;15.45;;;4.63;;
60993;SDS011;47611;54.932;73.338;2022-08-19T02:46:16;23.35;;;5.68;;
60993;SDS011;47611;54.932;73.338;2022-08-19T02:48:53;14.73;;;4.45;;
60993;SDS011;47611;54.932;73.338;2022-08-19T02:51:35;19.45;;;6.03;;
60993;SDS011;47611;54.932;73.338;2022-08-19T02:54:04;10.07;;;3.63;;
60993;SDS011;47611;54.932;73.338;2022-08-19T02:56:33;9.90;;;3.67;;
60993;SDS011;47611;54.932;73.338;2022-08-19T02:59:01;9.98;;;3.78;;
60993;SDS011;47611;54.932;73.338;2022-08-19T03:01:30;11.30;;;3.95;;
60993;SDS011;47611;54.932;73.338;2022-08-19T03:04:03;12.32;;;4.55;;
60993;SDS011;47611;54.932;73.338;2022-08-19T03:06:30;15.63;;;4.03;;
60993;SDS011;47611;54.932;73.338;2022-08-19T03:08:57;13.15;;;4.20;;
60993;SDS011;47611;54.932;73.338;2022-08-19T03:11:25;9.48;;;3.67;;
60993;SDS011;47611;54.932;73.338;2022-08-19T03:13:53;11.13;;;3.83;;
60993;SDS011;47611;54.932;73.338;2022-08-19T03:16:21;10.98;;;4.50;;
60993;SDS011;47611;54.932;73.338;2022-08-19T03:18:50;17.65;;;5.43;;
60993;SDS011;47611;54.932;73.338;2022-08-19T03:21:17;19.35;;;5.07;;
60993;SDS011;47611;54.932;73.338;2022-08-19T03:23:44;19.13;;;5.57;;
60993;SDS011;47611;54.932;73.338;2022-08-19T03:26:11;14.27;;;5.35;;
60993;SDS011;47611;54.932;73.338;2022-08-19T03:28:38;14.02;;;4.90;;
60993;SDS011;47611;54.932;73.338;2022-08-19T03:31:05;14.57;;;4.90;;
60993;SDS011;47611;54.932;73.338;2022-08-19T03:33:34;14.70;;;5.15;;
60993;SDS011;47611;54.932;73.338;2022-08-19T03:36:01;10.75;;;4.10;;
60993;SDS011;47611;54.932;73.338;2022-08-19T03:38:45;15.38;;;4.32;;
60993;SDS011;47611;54.932;73.338;2022-08-19T03:41:15;12.00;;;4.40;;
60993;SDS011;47611;54.932;73.338;2022-08-19T03:43:45;14.32;;;4.50;;
60993;SDS011;47611;54.932;73.338;2022-08-19T03:46:14;13.43;;;4.00;;
60993;SDS011;47611;54.932;73.338;2022-08-19T03:48:43;17.60;;;3.80;;
60993;SDS011;47611;54.932;73.338;2022-08-19T03:51:17;18.48;;;3.75;;
60993;SDS011;47611;54.932;73.338;2022-08-19T03:53:45;16.00;;;3.90;;
60993;SDS011;47611;54.932;73.338;2022-08-19T03:56:13;8.80;;;3.30;;
60993;SDS011;47611;54.932;73.338;2022-08-19T03:58:39;16.58;;;4.45;;
60993;SDS011;47611;54.932;73.338;2022-08-19T04:01:10;15.00;;;4.20;;
60993;SDS011;47611;54.932;73.338;2022-08-19T04:03:39;11.52;;;4.30;;
60993;SDS011;47611;54.932;73.338;2022-08-19T04:08:43;17.23;;;4.30;;
60993;SDS011;47611;54.932;73.338;2022-08-19T04:11:12;15.63;;;4.60;;
60993;SDS011;47611;54.932;73.338;2022-08-19T04:13:41;17.67;;;5.60;;
60993;SDS011;47611;54.932;73.338;2022-08-19T04:16:08;19.13;;;5.95;;
60993;SDS011;47611;54.932;73.338;2022-08-19T04:18:36;13.63;;;4.90;;
60993;SDS011;47611;54.932;73.338;2022-08-19T04:21:14;12.00;;;4.30;;
60993;SDS011;47611;54.932;73.338;2022-08-19T04:23:53;14.38;;;4.72;;
60993;SDS011;47611;54.932;73.338;2022-08-19T04:26:21;20.92;;;5.32;;
60993;SDS011;47611;54.932;73.338;2022-08-19T04:28:49;16.52;;;4.78;;
60993;SDS011;47611;54.932;73.338;2022-08-19T04:31:21;17.77;;;5.57;;
60993;SDS011;47611;54.932;73.338;2022-08-19T04:33:58;11.85;;;3.85;;
60993;SDS011;47611;54.932;73.338;2022-08-19T04:36:35;12.80;;;3.85;;
60993;SDS011;47611;54.932;73.338;2022-08-19T04:39:04;14.40;;;4.53;;
60993;SDS011;47611;54.932;73.338;2022-08-19T04:41:33;12.55;;;3.45;;
60993;SDS011;47611;54.932;73.338;2022-08-19T04:44:22;14.20;;;3.80;;
60993;SDS011;47611;54.932;73.338;2022-08-19T04:46:49;11.20;;;3.50;;
60993;SDS011;47611;54.932;73.338;2022-08-19T04:49:17;10.50;;;3.50;;
60993;SDS011;47611;54.932;73.338;2022-08-19T04:51:47;12.20;;;3.65;;
60993;SDS011;47611;54.932;73.338;2022-08-19T04:54:15;12.55;;;3.47;;
60993;SDS011;47611;54.932;73.338;2022-08-19T04:56:43;11.73;;;3.85;;
60993;SDS011;47611;54.932;73.338;2022-08-19T04:59:09;11.77;;;3.42;;
60993;SDS011;47611;54.932;73.338;2022-08-19T05:01:36;8.57;;;3.55;;
60993;SDS011;47611;54.932;73.338;2022-08-19T05:04:04;7.97;;;3.30;;
60993;SDS011;47611;54.932;73.338;2022-08-19T05:06:32;8.52;;;2.97;;
60993;SDS011;47611;54.932;73.338;2022-08-19T05:09:00;8.20;;;2.78;;
60993;SDS011;47611;54.932;73.338;2022-08-19T05:11:30;8.02;;;3.00;;
60993;SDS011;47611;54.932;73.338;2022-08-19T05:14:00;8.23;;;4.18;;
60993;SDS011;47611;54.932;73.338;2022-08-19T05:16:27;7.30;;;3.20;;
60993;SDS011;47611;54.932;73.338;2022-08-19T05:18:54;9.82;;;3.45;;
60993;SDS011;47611;54.932;73.338;2022-08-19T05:21:40;10.93;;;3.70;;
60993;SDS011;47611;54.932;73.338;2022-08-19T05:24:30;6.97;;;3.28;;
60993;SDS011;47611;54.932;73.338;2022-08-19T05:26:59;9.10;;;3.45;;
60993;SDS011;47611;54.932;73.338;2022-08-19T05:29:28;7.40;;;3.10;;
60993;SDS011;47611;54.932;73.338;2022-08-19T05:31:57;8.52;;;4.00;;
60993;SDS011;47611;54.932;73.338;2022-08-19T05:34:24;11.93;;;4.63;;
60993;SDS011;47611;54.932;73.338;2022-08-19T05:36:54;10.93;;;3.47;;
60993;SDS011;47611;54.932;73.338;2022-08-19T05:39:25;10.88;;;3.60;;
60993;SDS011;47611;54.932;73.338;2022-08-19T05:42:05;8.95;;;3.67;;
60993;SDS011;47611;54.932;73.338;2022-08-19T05:44:35;10.10;;;3.20;;
60993;SDS011;47611;54.932;73.338;2022-08-19T05:47:03;8.63;;;3.28;;
60993;SDS011;47611;54.932;73.338;2022-08-19T05:49:32;10.23;;;3.10;;
60993;SDS011;47611;54.932;73.338;2022-08-19T05:52:01;6.60;;;3.10;;
60993;SDS011;47611;54.932;73.338;2022-08-19T05:54:32;7.75;;;3.05;;
60993;SDS011;47611;54.932;73.338;2022-08-19T05:56:59;12.82;;;3.95;;
60993;SDS011;47611;54.932;73.338;2022-08-19T05:59:27;14.90;;;3.63;;
60993;SDS011;47611;54.932;73.338;2022-08-19T06:01:54;5.72;;;3.20;;
60993;SDS011;47611;54.932;73.338;2022-08-19T06:04:21;15.43;;;4.22;;
60993;SDS011;47611;54.932;73.338;2022-08-19T06:06:48;10.68;;;2.70;;
60993;SDS011;47611;54.932;73.338;2022-08-19T06:09:17;5.57;;;2.33;;
60993;SDS011;47611;54.932;73.338;2022-08-19T06:11:51;7.40;;;3.08;;
60993;SDS011;47611;54.932;73.338;2022-08-19T06:14:23;7.45;;;3.50;;
60993;SDS011;47611;54.932;73.338;2022-08-19T06:16:50;4.10;;;3.00;;
60993;SDS011;47611;54.932;73.338;2022-08-19T06:19:20;8.18;;;3.40;;
60993;SDS011;47611;54.932;73.338;2022-08-19T06:21:55;8.55;;;2.97;;
60993;SDS011;47611;54.932;73.338;2022-08-19T06:24:24;7.80;;;3.85;;
60993;SDS011;47611;54.932;73.338;2022-08-19T06:26:52;7.72;;;2.95;;
60993;SDS011;47611;54.932;73.338;2022-08-19T06:29:21;9.45;;;3.03;;
60993;SDS011;47611;54.932;73.338;2022-08-19T06:31:56;7.38;;;3.45;;
60993;SDS011;47611;54.932;73.338;2022-08-19T06:34:24;5.57;;;2.90;;
60993;SDS011;47611;54.932;73.338;2022-08-19T06:36:58;16.63;;;3.10;;
60993;SDS011;47611;54.932;73.338;2022-08-19T06:39:28;8.02;;;3.22;;
60993;SDS011;47611;54.932;73.338;2022-08-19T06:41:57;10.50;;;3.63;;
60993;SDS011;47611;54.932;73.338;2022-08-19T06:44:29;9.60;;;3.45;;
60993;SDS011;47611;54.932;73.338;2022-08-19T06:47:01;6.73;;;3.17;;
60993;SDS011;47611;54.932;73.338;2022-08-19T06:49:32;5.75;;;2.70;;
60993;SDS011;47611;54.932;73.338;2022-08-19T06:51:59;8.30;;;2.75;;
60993;SDS011;47611;54.932;73.338;2022-08-19T06:54:26;6.05;;;2.90;;
60993;SDS011;47611;54.932;73.338;2022-08-19T06:56:57;3.33;;;2.70;;
60993;SDS011;47611;54.932;73.338;2022-08-19T06:59:27;7.82;;;2.75;;
60993;SDS011;47611;54.932;73.338;2022-08-19T07:01:57;10.68;;;3.67;;
60993;SDS011;47611;54.932;73.338;2022-08-19T07:04:27;8.13;;;3.20;;
60993;SDS011;47611;54.932;73.338;2022-08-19T07:07:01;15.98;;;4.25;;
60993;SDS011;47611;54.932;73.338;2022-08-19T07:09:33;5.05;;;2.70;;
60993;SDS011;47611;54.932;73.338;2022-08-19T07:12:03;6.53;;;2.90;;
60993;SDS011;47611;54.932;73.338;2022-08-19T07:14:32;10.15;;;3.30;;
60993;SDS011;47611;54.932;73.338;2022-08-19T07:17:02;10.55;;;3.35;;
60993;SDS011;47611;54.932;73.338;2022-08-19T07:19:31;6.15;;;2.97;;
60993;SDS011;47611;54.932;73.338;2022-08-19T07:21:58;6.32;;;3.20;;
60993;SDS011;47611;54.932;73.338;2022-08-19T07:24:27;10.20;;;3.92;;
60993;SDS011;47611;54.932;73.338;2022-08-19T07:26:54;16.65;;;5.28;;
60993;SDS011;47611;54.932;73.338;2022-08-19T07:29:26;10.10;;;4.35;;
60993;SDS011;47611;54.932;73.338;2022-08-19T07:31:54;15.23;;;3.53;;
60993;SDS011;47611;54.932;73.338;2022-08-19T07:34:24;7.20;;;3.20;;
60993;SDS011;47611;54.932;73.338;2022-08-19T07:36:52;10.18;;;3.50;;
60993;SDS011;47611;54.932;73.338;2022-08-19T07:41:56;11.73;;;3.72;;
60993;SDS011;47611;54.932;73.338;2022-08-19T07:44:24;12.55;;;4.30;;
60993;SDS011;47611;54.932;73.338;2022-08-19T07:46:52;12.38;;;4.38;;
60993;SDS011;47611;54.932;73.338;2022-08-19T07:49:21;7.30;;;4.25;;
60993;SDS011;47611;54.932;73.338;2022-08-19T07:51:56;10.57;;;5.10;;
60993;SDS011;47611;54.932;73.338;2022-08-19T07:54:27;12.25;;;5.47;;
60993;SDS011;47611;54.932;73.338;2022-08-19T07:56:56;13.50;;;6.45;;
60993;SDS011;47611;54.932;73.338;2022-08-19T07:59:33;15.52;;;5.10;;
60993;SDS011;47611;54.932;73.338;2022-08-19T08:01:59;11.77;;;4.55;;
60993;SDS011;47611;54.932;73.338;2022-08-19T08:04:27;16.63;;;4.88;;
60993;SDS011;47611;54.932;73.338;2022-08-19T08:07:24;10.57;;;5.15;;
60993;SDS011;47611;54.932;73.338;2022-08-19T08:10:09;23.08;;;7.80;;
60993;SDS011;47611;54.932;73.338;2022-08-19T08:12:37;14.80;;;5.00;;
60993;SDS011;47611;54.932;73.338;2022-08-19T08:15:11;15.60;;;5.18;;
60993;SDS011;47611;54.932;73.338;2022-08-19T08:17:44;12.05;;;4.55;;
60993;SDS011;47611;54.932;73.338;2022-08-19T08:20:11;16.85;;;5.32;;
60993;SDS011;47611;54.932;73.338;2022-08-19T08:22:42;13.70;;;4.72;;
60993;SDS011;47611;54.932;73.338;2022-08-19T08:25:28;10.65;;;4.70;;
60993;SDS011;47611;54.932;73.338;2022-08-19T08:27:55;9.93;;;4.85;;
60993;SDS011;47611;54.932;73.338;2022-08-19T08:30:23;8.63;;;5.20;;
60993;SDS011;47611;54.932;73.338;2022-08-19T08:32:51;12.32;;;4.70;;
60993;SDS011;47611;54.932;73.338;2022-08-19T08:35:18;18.40;;;5.38;;
60993;SDS011;47611;54.932;73.338;2022-08-19T08:37:48;16.10;;;6.20;;
60993;SDS011;47611;54.932;73.338;2022-08-19T08:40:21;19.20;;;5.88;;
60993;SDS011;47611;54.932;73.338;2022-08-19T08:43:18;14.18;;;6.38;;
60993;SDS011;47611;54.932;73.338;2022-08-19T08:46:04;9.18;;;5.10;;
60993;SDS011;47611;54.932;73.338;2022-08-19T08:48:49;14.10;;;5.40;;
60993;SDS011;47611;54.932;73.338;2022-08-19T08:51:43;9.48;;;4.70;;
60993;SDS011;47611;54.932;73.338;2022-08-19T08:54:11;13.65;;;5.20;;
60993;SDS011;47611;54.932;73.338;2022-08-19T08:56:50;13.52;;;5.35;;
60993;SDS011;47611;54.932;73.338;2022-08-19T08:59:33;13.27;;;5.72;;
60993;SDS011;47611;54.932;73.338;2022-08-19T09:02:02;14.88;;;5.53;;
60993;SDS011;47611;54.932;73.338;2022-08-19T09:04:29;15.43;;;5.97;;
60993;SDS011;47611;54.932;73.338;2022-08-19T09:09:54;12.25;;;4.55;;
60993;SDS011;47611;54.932;73.338;2022-08-19T09:17:53;13.70;;;4.75;;
60993;SDS011;47611;54.932;73.338;2022-08-19T09:20:20;12.45;;;5.38;;
60993;SDS011;47611;54.932;73.338;2022-08-19T09:22:49;16.17;;;5.63;;
60993;SDS011;47611;54.932;73.338;2022-08-19T09:25:17;15.88;;;5.85;;
60993;SDS011;47611;54.932;73.338;2022-08-19T09:27:49;13.82;;;5.32;;
60993;SDS011;47611;54.932;73.338;2022-08-19T09:30:21;11.32;;;4.70;;
60993;SDS011;47611;54.932;73.338;2022-08-19T09:32:51;15.07;;;4.93;;
60993;SDS011;47611;54.932;73.338;2022-08-19T09:35:19;9.98;;;4.10;;
60993;SDS011;47611;54.932;73.338;2022-08-19T09:37:50;10.95;;;4.65;;
60993;SDS011;47611;54.932;73.338;2022-08-19T09:40:17;15.50;;;4.80;;
60993;SDS011;47611;54.932;73.338;2022-08-19T09:42:44;14.00;;;4.15;;
60993;SDS011;47611;54.932;73.338;2022-08-19T09:45:13;11.00;;;4.57;;
60993;SDS011;47611;54.932;73.338;2022-08-19T09:47:41;17.33;;;5.10;;
60993;SDS011;47611;54.932;73.338;2022-08-19T09:50:08;16.58;;;5.60;;
60993;SDS011;47611;54.932;73.338;2022-08-19T09:52:36;13.65;;;6.05;;
60993;SDS011;47611;54.932;73.338;2022-08-19T09:55:06;15.57;;;6.07;;
60993;SDS011;47611;54.932;73.338;2022-08-19T09:57:34;13.68;;;6.35;;
60993;SDS011;47611;54.932;73.338;2022-08-19T10:00:02;17.85;;;5.90;;
60993;SDS011;47611;54.932;73.338;2022-08-19T10:02:33;20.25;;;7.20;;
60993;SDS011;47611;54.932;73.338;2022-08-19T10:05:00;13.30;;;6.70;;
60993;SDS011;47611;54.932;73.338;2022-08-19T10:07:45;16.75;;;7.20;;
60993;SDS011;47611;54.932;73.338;2022-08-19T10:10:11;18.13;;;7.25;;
60993;SDS011;47611;54.932;73.338;2022-08-19T10:12:37;18.17;;;7.30;;
60993;SDS011;47611;54.932;73.338;2022-08-19T10:15:05;21.67;;;8.05;;
60993;SDS011;47611;54.932;73.338;2022-08-19T10:17:32;18.20;;;8.25;;
60993;SDS011;47611;54.932;73.338;2022-08-19T10:20:01;16.10;;;7.63;;
60993;SDS011;47611;54.932;73.338;2022-08-19T10:22:30;27.85;;;8.70;;
60993;SDS011;47611;54.932;73.338;2022-08-19T10:25:01;26.50;;;8.73;;
60993;SDS011;47611;54.932;73.338;2022-08-19T10:27:28;25.85;;;9.43;;
60993;SDS011;47611;54.932;73.338;2022-08-19T10:30:04;21.30;;;8.48;;
60993;SDS011;47611;54.932;73.338;2022-08-19T10:32:32;22.67;;;9.52;;
60993;SDS011;47611;54.932;73.338;2022-08-19T10:34:58;19.40;;;8.57;;
60993;SDS011;47611;54.932;73.338;2022-08-19T10:37:24;18.55;;;8.18;;
60993;SDS011;47611;54.932;73.338;2022-08-19T10:39:50;23.55;;;9.65;;
60993;SDS011;47611;54.932;73.338;2022-08-19T10:42:16;21.15;;;8.95;;
60993;SDS011;47611;54.932;73.338;2022-08-19T10:44:44;18.08;;;8.63;;
60993;SDS011;47611;54.932;73.338;2022-08-19T10:47:12;18.13;;;7.82;;
60993;SDS011;47611;54.932;73.338;2022-08-19T10:49:38;19.15;;;8.82;;
60993;SDS011;47611;54.932;73.338;2022-08-19T10:52:27;13.13;;;7.22;;
60993;SDS011;47611;54.932;73.338;2022-08-19T10:55:00;13.13;;;7.20;;
60993;SDS011;47611;54.932;73.338;2022-08-19T10:57:45;18.45;;;8.18;;
60993;SDS011;47611;54.932;73.338;2022-08-19T11:00:12;13.15;;;7.35;;
60993;SDS011;47611;54.932;73.338;2022-08-19T11:02:39;15.30;;;7.22;;
60993;SDS011;47611;54.932;73.338;2022-08-19T11:05:06;15.90;;;9.30;;
60993;SDS011;47611;54.932;73.338;2022-08-19T11:07:37;12.20;;;6.68;;
60993;SDS011;47611;54.932;73.338;2022-08-19T11:10:05;13.85;;;6.90;;
60993;SDS011;47611;54.932;73.338;2022-08-19T11:12:32;11.95;;;6.20;;
60993;SDS011;47611;54.932;73.338;2022-08-19T11:14:58;12.32;;;6.85;;
60993;SDS011;47611;54.932;73.338;2022-08-19T11:17:25;11.68;;;6.13;;
60993;SDS011;47611;54.932;73.338;2022-08-19T11:20:01;15.60;;;8.43;;
60993;SDS011;47611;54.932;73.338;2022-08-19T11:22:30;16.65;;;10.15;;
60993;SDS011;47611;54.932;73.338;2022-08-19T11:24:57;14.48;;;9.20;;
60993;SDS011;47611;54.932;73.338;2022-08-19T11:27:28;14.70;;;9.00;;
60993;SDS011;47611;54.932;73.338;2022-08-19T11:29:54;14.38;;;7.88;;
60993;SDS011;47611;54.932;73.338;2022-08-19T11:32:21;17.17;;;7.70;;
60993;SDS011;47611;54.932;73.338;2022-08-19T11:34:47;17.08;;;7.93;;
60993;SDS011;47611;54.932;73.338;2022-08-19T11:37:13;12.55;;;5.93;;
60993;SDS011;47611;54.932;73.338;2022-08-19T11:39:39;11.32;;;5.80;;
60993;SDS011;47611;54.932;73.338;2022-08-19T11:42:06;12.82;;;7.25;;
60993;SDS011;47611;54.932;73.338;2022-08-19T11:44:54;18.60;;;9.85;;
60993;SDS011;47611;54.932;73.338;2022-08-19T11:47:20;59.47;;;28.77;;
60993;SDS011;47611;54.932;73.338;2022-08-19T11:49:47;19.75;;;10.25;;
60993;SDS011;47611;54.932;73.338;2022-08-19T11:52:13;19.15;;;10.13;;
60993;SDS011;47611;54.932;73.338;2022-08-19T11:54:40;27.10;;;12.10;;
60993;SDS011;47611;54.932;73.338;2022-08-19T11:57:06;18.05;;;10.63;;
60993;SDS011;47611;54.932;73.338;2022-08-19T11:59:32;17.77;;;9.70;;
60993;SDS011;47611;54.932;73.338;2022-08-19T12:01:59;15.50;;;8.68;;
60993;SDS011;47611;54.932;73.338;2022-08-19T12:04:25;21.15;;;10.73;;
60993;SDS011;47611;54.932;73.338;2022-08-19T12:06:51;16.42;;;8.75;;
60993;SDS011;47611;54.932;73.338;2022-08-19T12:09:18;15.82;;;7.50;;
60993;SDS011;47611;54.932;73.338;2022-08-19T12:11:44;15.07;;;8.30;;
60993;SDS011;47611;54.932;73.338;2022-08-19T12:14:12;15.32;;;8.55;;
60993;SDS011;47611;54.932;73.338;2022-08-19T12:16:39;16.38;;;9.40;;
60993;SDS011;47611;54.932;73.338;2022-08-19T12:19:06;19.95;;;9.25;;
60993;SDS011;47611;54.932;73.338;2022-08-19T12:21:43;18.58;;;9.25;;
60993;SDS011;47611;54.932;73.338;2022-08-19T12:24:09;19.92;;;10.25;;
60993;SDS011;47611;54.932;73.338;2022-08-19T12:26:41;17.27;;;9.55;;
60993;SDS011;47611;54.932;73.338;2022-08-19T12:29:08;21.48;;;10.30;;
60993;SDS011;47611;54.932;73.338;2022-08-19T12:31:34;21.13;;;10.15;;
60993;SDS011;47611;54.932;73.338;2022-08-19T12:34:00;24.00;;;10.70;;
60993;SDS011;47611;54.932;73.338;2022-08-19T12:36:31;21.77;;;10.07;;
60993;SDS011;47611;54.932;73.338;2022-08-19T12:38:57;23.45;;;10.73;;
60993;SDS011;47611;54.932;73.338;2022-08-19T12:41:25;22.20;;;10.38;;
60993;SDS011;47611;54.932;73.338;2022-08-19T12:43:56;21.97;;;11.17;;
60993;SDS011;47611;54.932;73.338;2022-08-19T12:46:23;20.02;;;10.13;;
60993;SDS011;47611;54.932;73.338;2022-08-19T12:48:50;16.70;;;8.70;;
60993;SDS011;47611;54.932;73.338;2022-08-19T12:51:17;24.25;;;10.30;;
60993;SDS011;47611;54.932;73.338;2022-08-19T12:53:47;21.02;;;9.93;;
60993;SDS011;47611;54.932;73.338;2022-08-19T12:56:15;16.70;;;7.38;;
60993;SDS011;47611;54.932;73.338;2022-08-19T12:58:43;16.63;;;8.85;;
60993;SDS011;47611;54.932;73.338;2022-08-19T13:01:10;17.73;;;8.65;;
60993;SDS011;47611;54.932;73.338;2022-08-19T13:03:38;19.92;;;9.13;;
60993;SDS011;47611;54.932;73.338;2022-08-19T13:06:05;15.65;;;7.55;;
60993;SDS011;47611;54.932;73.338;2022-08-19T13:08:36;13.18;;;7.18;;
60993;SDS011;47611;54.932;73.338;2022-08-19T13:11:10;16.52;;;7.10;;
60993;SDS011;47611;54.932;73.338;2022-08-19T13:13:43;20.90;;;11.18;;
60993;SDS011;47611;54.932;73.338;2022-08-19T13:16:15;41.20;;;18.13;;
60993;SDS011;47611;54.932;73.338;2022-08-19T13:18:44;29.27;;;14.30;;
60993;SDS011;47611;54.932;73.338;2022-08-19T13:21:17;25.33;;;12.43;;
60993;SDS011;47611;54.932;73.338;2022-08-19T13:23:46;15.20;;;8.10;;
60993;SDS011;47611;54.932;73.338;2022-08-19T13:26:14;14.93;;;8.32;;
60993;SDS011;47611;54.932;73.338;2022-08-19T13:28:41;11.60;;;6.28;;
60993;SDS011;47611;54.932;73.338;2022-08-19T13:31:27;16.35;;;6.25;;
60993;SDS011;47611;54.932;73.338;2022-08-19T13:34:28;18.85;;;9.73;;
60993;SDS011;47611;54.932;73.338;2022-08-19T13:36:58;16.10;;;7.80;;
60993;SDS011;47611;54.932;73.338;2022-08-19T13:39:24;12.93;;;6.65;;
60993;SDS011;47611;54.932;73.338;2022-08-19T13:41:51;14.80;;;8.65;;
60993;SDS011;47611;54.932;73.338;2022-08-19T13:44:17;14.27;;;6.57;;
60993;SDS011;47611;54.932;73.338;2022-08-19T13:46:49;15.70;;;8.52;;
60993;SDS011;47611;54.932;73.338;2022-08-19T13:49:18;19.55;;;9.80;;
60993;SDS011;47611;54.932;73.338;2022-08-19T13:51:46;14.75;;;7.65;;
60993;SDS011;47611;54.932;73.338;2022-08-19T13:54:12;15.73;;;8.15;;
60993;SDS011;47611;54.932;73.338;2022-08-19T13:56:42;24.83;;;11.23;;
60993;SDS011;47611;54.932;73.338;2022-08-19T13:59:10;19.58;;;8.88;;
60993;SDS011;47611;54.932;73.338;2022-08-19T14:01:36;15.60;;;8.10;;
60993;SDS011;47611;54.932;73.338;2022-08-19T14:04:03;19.02;;;9.75;;
60993;SDS011;47611;54.932;73.338;2022-08-19T14:06:41;23.52;;;11.02;;
60993;SDS011;47611;54.932;73.338;2022-08-19T14:09:17;18.58;;;9.77;;
60993;SDS011;47611;54.932;73.338;2022-08-19T14:11:43;23.20;;;11.15;;
60993;SDS011;47611;54.932;73.338;2022-08-19T14:14:12;19.50;;;10.25;;
60993;SDS011;47611;54.932;73.338;2022-08-19T14:16:38;18.30;;;9.68;;
60993;SDS011;47611;54.932;73.338;2022-08-19T14:19:04;18.85;;;9.27;;
60993;SDS011;47611;54.932;73.338;2022-08-19T14:21:30;21.42;;;10.13;;
60993;SDS011;47611;54.932;73.338;2022-08-19T14:23:56;21.35;;;12.93;;
60993;SDS011;47611;54.932;73.338;2022-08-19T14:26:23;22.58;;;13.10;;
60993;SDS011;47611;54.932;73.338;2022-08-19T14:28:49;24.70;;;13.57;;
60993;SDS011;47611;54.932;73.338;2022-08-19T14:31:17;19.10;;;11.43;;
60993;SDS011;47611;54.932;73.338;2022-08-19T14:33:47;24.45;;;12.07;;
60993;SDS011;47611;54.932;73.338;2022-08-19T14:36:13;23.48;;;12.18;;
60993;SDS011;47611;54.932;73.338;2022-08-19T14:38:40;24.02;;;13.25;;
60993;SDS011;47611;54.932;73.338;2022-08-19T14:41:07;20.83;;;11.57;;
60993;SDS011;47611;54.932;73.338;2022-08-19T14:43:43;20.33;;;11.27;;
60993;SDS011;47611;54.932;73.338;2022-08-19T14:46:14;24.13;;;11.45;;
60993;SDS011;47611;54.932;73.338;2022-08-19T14:48:42;29.15;;;11.70;;
60993;SDS011;47611;54.932;73.338;2022-08-19T14:51:19;24.25;;;11.27;;
60993;SDS011;47611;54.932;73.338;2022-08-19T14:53:47;22.88;;;13.02;;
60993;SDS011;47611;54.932;73.338;2022-08-19T14:56:15;26.90;;;14.88;;